WZZ99 EYVI-LIMC
Flight info
| Callsign | WZZ99 |
|---|---|
| Flight time | N/A |
| Altitude | 34000 |
| Route | UPASI DCT TUNGA DCT SUWGI DCT UDROV DCT UVIVI DCT ELVOT DCT BUDEX DCT DETSA/N0450F350 DCT BAKOR DCT NAXAV DCT RENTA DCT ATPED DCT LUSIL DCT EVRIP |
| Aircraft | A21N/M-SDE3FGHIRWY/LB1 |
Departure
| Time | 2026-04-28 14:15 |
|---|---|
| Airport | Vilnius International Airport (EYVI) |
Arrival
| Time | N/A |
|---|---|
| Airport | Milan Malpensa International Airport (LIMC) |
| Time | Latitude | Longitude | Altitude | Speed | Heading |
|---|---|---|---|---|---|
| 2026-04-28 13:44 | 54.64491 | 25.28176 | 639 ft | 0 kts | 270° |
| 2026-04-28 14:04 | 54.64491 | 25.28199 | 639 ft | 2 kts | 269° |
| 2026-04-28 14:05 | 54.64490 | 25.28215 | 639 ft | 2 kts | 266° |
| 2026-04-28 14:05 | 54.64495 | 25.28239 | 639 ft | 2 kts | 237° |
| 2026-04-28 14:05 | 54.64505 | 25.28259 | 640 ft | 2 kts | 215° |
| 2026-04-28 14:05 | 54.64518 | 25.28270 | 640 ft | 2 kts | 193° |
| 2026-04-28 14:06 | 54.64526 | 25.28273 | 640 ft | 1 kts | 180° |
| 2026-04-28 14:06 | 54.64532 | 25.28272 | 640 ft | 0 kts | 179° |
| 2026-04-28 14:08 | 54.64521 | 25.28273 | 640 ft | 3 kts | 179° |
| 2026-04-28 14:08 | 54.64482 | 25.28279 | 639 ft | 6 kts | 154° |
| 2026-04-28 14:09 | 54.64477 | 25.28351 | 640 ft | 6 kts | 76° |
| 2026-04-28 14:09 | 54.64490 | 25.28444 | 641 ft | 9 kts | 76° |
| 2026-04-28 14:09 | 54.64505 | 25.28546 | 643 ft | 8 kts | 76° |
| 2026-04-28 14:09 | 54.64489 | 25.28616 | 644 ft | 7 kts | 166° |
| 2026-04-28 14:10 | 54.64418 | 25.28635 | 643 ft | 12 kts | 171° |
| 2026-04-28 14:10 | 54.64315 | 25.28661 | 642 ft | 16 kts | 173° |
| 2026-04-28 14:10 | 54.64189 | 25.28684 | 639 ft | 18 kts | 173° |
| 2026-04-28 14:10 | 54.64074 | 25.28705 | 637 ft | 13 kts | 176° |
| 2026-04-28 14:11 | 54.63974 | 25.28659 | 634 ft | 17 kts | 202° |
| 2026-04-28 14:11 | 54.63839 | 25.28566 | 627 ft | 23 kts | 201° |
| 2026-04-28 14:11 | 54.63673 | 25.28451 | 618 ft | 26 kts | 202° |
| 2026-04-28 14:11 | 54.63498 | 25.28329 | 612 ft | 27 kts | 201° |
| 2026-04-28 14:12 | 54.63316 | 25.28203 | 606 ft | 28 kts | 201° |
| 2026-04-28 14:12 | 54.63130 | 25.28075 | 601 ft | 28 kts | 202° |
| 2026-04-28 14:12 | 54.62949 | 25.27950 | 599 ft | 28 kts | 201° |
| 2026-04-28 14:12 | 54.62773 | 25.27827 | 598 ft | 26 kts | 202° |
| 2026-04-28 14:13 | 54.62615 | 25.27717 | 599 ft | 19 kts | 201° |
| 2026-04-28 14:13 | 54.62524 | 25.27668 | 600 ft | 10 kts | 166° |
| 2026-04-28 14:13 | 54.62463 | 25.27739 | 600 ft | 10 kts | 142° |
| 2026-04-28 14:13 | 54.62408 | 25.27831 | 600 ft | 8 kts | 132° |
| 2026-04-28 14:14 | 54.62405 | 25.27877 | 600 ft | 3 kts | 27° |
| 2026-04-28 14:14 | 54.62421 | 25.27888 | 599 ft | 9 kts | 23° |
| 2026-04-28 14:14 | 54.62725 | 25.28100 | 598 ft | 83 kts | 21° |
| 2026-04-28 14:14 | 54.63460 | 25.28608 | 614 ft | 142 kts | 22° |
| 2026-04-28 14:15 | 54.64480 | 25.29331 | 938 ft | 164 kts | 19° |
| 2026-04-28 14:15 | 54.65545 | 25.30080 | 1562 ft | 168 kts | 17° |
| 2026-04-28 14:15 | 54.66590 | 25.30803 | 2330 ft | 166 kts | 15° |
| 2026-04-28 14:15 | 54.67659 | 25.31545 | 2919 ft | 167 kts | 17° |
| 2026-04-28 14:16 | 54.68724 | 25.32302 | 3507 ft | 166 kts | 16° |
| 2026-04-28 14:16 | 54.69796 | 25.33018 | 4004 ft | 170 kts | 15° |
| 2026-04-28 14:16 | 54.70943 | 25.33754 | 4338 ft | 184 kts | 15° |
| 2026-04-28 14:16 | 54.72168 | 25.34569 | 4739 ft | 196 kts | 17° |
| 2026-04-28 14:17 | 54.73495 | 25.35460 | 5047 ft | 213 kts | 17° |
| 2026-04-28 14:17 | 54.74971 | 25.36256 | 5314 ft | 231 kts | 4° |
| 2026-04-28 14:17 | 54.76558 | 25.35793 | 5672 ft | 242 kts | 329° |
| 2026-04-28 14:17 | 54.77683 | 25.33637 | 6305 ft | 251 kts | 297° |
| 2026-04-28 14:18 | 54.78080 | 25.30710 | 7006 ft | 260 kts | 274° |
| 2026-04-28 14:18 | 54.77678 | 25.27601 | 7711 ft | 273 kts | 247° |
| 2026-04-28 14:18 | 54.76662 | 25.24831 | 8419 ft | 277 kts | 241° |
| 2026-04-28 14:18 | 54.75586 | 25.22049 | 9085 ft | 279 kts | 241° |
| 2026-04-28 14:19 | 54.74518 | 25.19284 | 9763 ft | 281 kts | 241° |
| 2026-04-28 14:19 | 54.73431 | 25.16469 | 10428 ft | 283 kts | 241° |
| 2026-04-28 14:19 | 54.72329 | 25.13601 | 10778 ft | 296 kts | 240° |
| 2026-04-28 14:19 | 54.71159 | 25.10554 | 11072 ft | 311 kts | 240° |
| 2026-04-28 14:20 | 54.69935 | 25.07377 | 11459 ft | 322 kts | 240° |
| 2026-04-28 14:20 | 54.68692 | 25.04164 | 12018 ft | 326 kts | 240° |
| 2026-04-28 14:20 | 54.67440 | 25.00936 | 12617 ft | 329 kts | 240° |
| 2026-04-28 14:20 | 54.66153 | 24.97614 | 13175 ft | 333 kts | 239° |
| 2026-04-28 14:21 | 54.64872 | 24.94313 | 13724 ft | 336 kts | 239° |
| 2026-04-28 14:21 | 54.63565 | 24.90950 | 14273 ft | 340 kts | 239° |
| 2026-04-28 14:21 | 54.62244 | 24.87558 | 14799 ft | 343 kts | 239° |
| 2026-04-28 14:21 | 54.60912 | 24.84138 | 15319 ft | 347 kts | 239° |
| 2026-04-28 14:22 | 54.59571 | 24.80703 | 15849 ft | 350 kts | 239° |
| 2026-04-28 14:22 | 54.58199 | 24.77188 | 16377 ft | 352 kts | 239° |
| 2026-04-28 14:22 | 54.56843 | 24.73721 | 16884 ft | 355 kts | 239° |
| 2026-04-28 14:22 | 54.55462 | 24.70194 | 17372 ft | 358 kts | 239° |
| 2026-04-28 14:23 | 54.54062 | 24.66625 | 17854 ft | 360 kts | 239° |
| 2026-04-28 14:23 | 54.52651 | 24.63031 | 18330 ft | 363 kts | 239° |
| 2026-04-28 14:23 | 54.51241 | 24.59448 | 18780 ft | 366 kts | 239° |
| 2026-04-28 14:23 | 54.49817 | 24.55829 | 19222 ft | 368 kts | 239° |
| 2026-04-28 14:24 | 54.48374 | 24.52172 | 19660 ft | 371 kts | 239° |
| 2026-04-28 14:24 | 54.46934 | 24.48526 | 20086 ft | 373 kts | 239° |
| 2026-04-28 14:24 | 54.45477 | 24.44840 | 20499 ft | 376 kts | 239° |
| 2026-04-28 14:24 | 54.43991 | 24.41088 | 20912 ft | 379 kts | 239° |
| 2026-04-28 14:25 | 54.42511 | 24.37357 | 21321 ft | 381 kts | 239° |
| 2026-04-28 14:25 | 54.41031 | 24.33633 | 21719 ft | 383 kts | 238° |
| 2026-04-28 14:25 | 54.39589 | 24.29766 | 22114 ft | 383 kts | 244° |
| 2026-04-28 14:25 | 54.38414 | 24.25686 | 22494 ft | 382 kts | 251° |
| 2026-04-28 14:26 | 54.37522 | 24.21414 | 22868 ft | 382 kts | 256° |
| 2026-04-28 14:26 | 54.36746 | 24.17051 | 23242 ft | 383 kts | 257° |
| 2026-04-28 14:26 | 54.35990 | 24.12684 | 23614 ft | 384 kts | 257° |
| 2026-04-28 14:26 | 54.35238 | 24.08358 | 23974 ft | 386 kts | 257° |
| 2026-04-28 14:27 | 54.34463 | 24.03934 | 24307 ft | 388 kts | 258° |
| 2026-04-28 14:27 | 54.33683 | 23.99505 | 24669 ft | 389 kts | 257° |
| 2026-04-28 14:27 | 54.32900 | 23.95084 | 24972 ft | 392 kts | 257° |
| 2026-04-28 14:27 | 54.32108 | 23.90642 | 25279 ft | 393 kts | 257° |
| 2026-04-28 14:28 | 54.31311 | 23.86186 | 25593 ft | 394 kts | 258° |
| 2026-04-28 14:28 | 54.30507 | 23.81700 | 25907 ft | 395 kts | 258° |
| 2026-04-28 14:28 | 54.29701 | 23.77212 | 26191 ft | 396 kts | 258° |
| 2026-04-28 14:28 | 54.28888 | 23.72701 | 26437 ft | 397 kts | 258° |
| 2026-04-28 14:29 | 54.28077 | 23.68206 | 26698 ft | 398 kts | 258° |
| 2026-04-28 14:29 | 54.27260 | 23.63692 | 26945 ft | 399 kts | 258° |
| 2026-04-28 14:29 | 54.26441 | 23.59170 | 27150 ft | 401 kts | 258° |
| 2026-04-28 14:29 | 54.25612 | 23.54619 | 27347 ft | 403 kts | 258° |
| 2026-04-28 14:30 | 54.24781 | 23.50074 | 27589 ft | 403 kts | 258° |
| 2026-04-28 14:30 | 54.23945 | 23.45499 | 27813 ft | 404 kts | 258° |
| 2026-04-28 14:30 | 54.23027 | 23.40989 | 28020 ft | 408 kts | 255° |
| 2026-04-28 14:30 | 54.21923 | 23.36525 | 28236 ft | 412 kts | 251° |
| 2026-04-28 14:31 | 54.20639 | 23.32170 | 28450 ft | 415 kts | 247° |
| 2026-04-28 14:31 | 54.19242 | 23.27815 | 28665 ft | 417 kts | 247° |
| 2026-04-28 14:31 | 54.17853 | 23.23510 | 28870 ft | 418 kts | 246° |
| 2026-04-28 14:31 | 54.16444 | 23.19154 | 29059 ft | 420 kts | 247° |
| 2026-04-28 14:32 | 54.15031 | 23.14792 | 29280 ft | 420 kts | 247° |
| 2026-04-28 14:32 | 54.13626 | 23.10451 | 29481 ft | 421 kts | 247° |
| 2026-04-28 14:32 | 54.12217 | 23.06109 | 29676 ft | 423 kts | 247° |
| 2026-04-28 14:32 | 54.10796 | 23.01739 | 29884 ft | 423 kts | 247° |
| 2026-04-28 14:33 | 54.09369 | 22.97361 | 30081 ft | 424 kts | 247° |
| 2026-04-28 14:33 | 54.07938 | 22.92977 | 30266 ft | 426 kts | 247° |
| 2026-04-28 14:33 | 54.06453 | 22.88658 | 30445 ft | 429 kts | 244° |
| 2026-04-28 14:33 | 54.04838 | 22.84350 | 30608 ft | 431 kts | 244° |
| 2026-04-28 14:34 | 54.01617 | 22.75808 | 30935 ft | 434 kts | 244° |
| 2026-04-28 14:34 | 53.99992 | 22.71509 | 31085 ft | 436 kts | 244° |
| 2026-04-28 14:34 | 53.98337 | 22.67135 | 31250 ft | 437 kts | 244° |
| 2026-04-28 14:35 | 53.96715 | 22.62859 | 31415 ft | 438 kts | 244° |
| 2026-04-28 14:35 | 53.95069 | 22.58524 | 31613 ft | 438 kts | 244° |
| 2026-04-28 14:35 | 53.93406 | 22.54153 | 31815 ft | 438 kts | 244° |
| 2026-04-28 14:35 | 53.91768 | 22.49855 | 32041 ft | 437 kts | 244° |
| 2026-04-28 14:36 | 53.90124 | 22.45550 | 32222 ft | 438 kts | 244° |
| 2026-04-28 14:36 | 53.88477 | 22.41239 | 32395 ft | 439 kts | 244° |
| 2026-04-28 14:36 | 53.86858 | 22.37013 | 32548 ft | 440 kts | 244° |
| 2026-04-28 14:36 | 53.85178 | 22.32634 | 32696 ft | 441 kts | 243° |
| 2026-04-28 14:37 | 53.83503 | 22.28276 | 32840 ft | 443 kts | 243° |
| 2026-04-28 14:37 | 53.81835 | 22.23941 | 32963 ft | 444 kts | 243° |
| 2026-04-28 14:37 | 53.80139 | 22.19546 | 33128 ft | 445 kts | 243° |
| 2026-04-28 14:37 | 53.78441 | 22.15156 | 33314 ft | 445 kts | 243° |
| 2026-04-28 14:38 | 53.77106 | 22.11706 | 33421 ft | 446 kts | 243° |
| 2026-04-28 14:38 | 53.75409 | 22.07329 | 33562 ft | 447 kts | 243° |
| 2026-04-28 14:38 | 53.73716 | 22.02968 | 33693 ft | 448 kts | 243° |
| 2026-04-28 14:38 | 53.72002 | 21.98563 | 33841 ft | 450 kts | 243° |
| 2026-04-28 14:39 | 53.70298 | 21.94191 | 33984 ft | 451 kts | 243° |
| 2026-04-28 14:39 | 53.68682 | 21.90051 | 34129 ft | 451 kts | 243° |
| 2026-04-28 14:39 | 53.68659 | 21.89992 | 34131 ft | 451 kts | 243° |
| 2026-04-28 14:40 | 53.66826 | 21.85302 | 34224 ft | 452 kts | 243° |
| 2026-04-28 14:40 | 53.63360 | 21.76472 | 34242 ft | 451 kts | 243° |
| 2026-04-28 14:41 | 53.59918 | 21.67723 | 34250 ft | 452 kts | 243° |
| 2026-04-28 14:41 | 53.56454 | 21.58952 | 34246 ft | 451 kts | 243° |
| 2026-04-28 14:42 | 53.52996 | 21.50229 | 34254 ft | 450 kts | 243° |
| 2026-04-28 14:42 | 53.49536 | 21.41526 | 34247 ft | 450 kts | 243° |
| 2026-04-28 14:43 | 53.46070 | 21.32840 | 34261 ft | 450 kts | 243° |
| 2026-04-28 14:43 | 53.42568 | 21.24091 | 34250 ft | 449 kts | 243° |
| 2026-04-28 14:44 | 53.39101 | 21.15464 | 34252 ft | 447 kts | 243° |
| 2026-04-28 14:44 | 53.35640 | 21.06874 | 34282 ft | 446 kts | 243° |
| 2026-04-28 14:45 | 53.32190 | 20.98338 | 34268 ft | 447 kts | 243° |
| 2026-04-28 14:45 | 53.28697 | 20.89738 | 34240 ft | 446 kts | 243° |
| 2026-04-28 14:46 | 53.25000 | 20.81387 | 34262 ft | 451 kts | 238° |
| 2026-04-28 14:46 | 53.20858 | 20.73563 | 34256 ft | 451 kts | 236° |
| 2026-04-28 14:47 | 53.16698 | 20.65829 | 34265 ft | 449 kts | 236° |
| 2026-04-28 14:47 | 53.12546 | 20.58124 | 34252 ft | 448 kts | 236° |
| 2026-04-28 14:48 | 53.08384 | 20.50417 | 34231 ft | 449 kts | 236° |
| 2026-04-28 14:48 | 53.04213 | 20.42718 | 34282 ft | 448 kts | 236° |
| 2026-04-28 14:49 | 53.00083 | 20.35120 | 34255 ft | 447 kts | 236° |
| 2026-04-28 14:49 | 52.95893 | 20.27434 | 34287 ft | 447 kts | 236° |
| 2026-04-28 14:50 | 52.91738 | 20.19838 | 34295 ft | 446 kts | 235° |
| 2026-04-28 14:50 | 52.87575 | 20.12250 | 34277 ft | 446 kts | 236° |
| 2026-04-28 14:51 | 52.83413 | 20.04688 | 34279 ft | 447 kts | 236° |
| 2026-04-28 14:51 | 52.79331 | 19.97296 | 34285 ft | 445 kts | 236° |
| 2026-04-28 14:52 | 52.75171 | 19.89779 | 34284 ft | 446 kts | 235° |
| 2026-04-28 14:52 | 52.71013 | 19.82291 | 34296 ft | 445 kts | 235° |
| 2026-04-28 14:53 | 52.66833 | 19.74791 | 34287 ft | 444 kts | 235° |
| 2026-04-28 14:53 | 52.62668 | 19.67339 | 34265 ft | 444 kts | 236° |
| 2026-04-28 14:54 | 52.58526 | 19.59947 | 34273 ft | 443 kts | 236° |
| 2026-04-28 14:54 | 52.54353 | 19.52524 | 34288 ft | 443 kts | 235° |
| 2026-04-28 14:55 | 52.50171 | 19.45106 | 34285 ft | 442 kts | 235° |
| 2026-04-28 14:55 | 52.46019 | 19.37764 | 34280 ft | 443 kts | 235° |
| 2026-04-28 14:56 | 52.41818 | 19.30360 | 34271 ft | 443 kts | 234° |
| 2026-04-28 14:56 | 52.37692 | 19.23109 | 34264 ft | 443 kts | 234° |
| 2026-04-28 14:57 | 52.33479 | 19.15724 | 34278 ft | 444 kts | 234° |
| 2026-04-28 14:57 | 52.29304 | 19.08431 | 34268 ft | 443 kts | 234° |
| 2026-04-28 14:58 | 52.25093 | 19.01092 | 34270 ft | 444 kts | 234° |
| 2026-04-28 14:58 | 52.20847 | 18.93718 | 34265 ft | 445 kts | 234° |
| 2026-04-28 14:59 | 52.16628 | 18.86422 | 34261 ft | 444 kts | 234° |
| 2026-04-28 14:59 | 52.12425 | 18.79164 | 34251 ft | 444 kts | 234° |
| 2026-04-28 15:00 | 52.08197 | 18.71890 | 34249 ft | 443 kts | 234° |
| 2026-04-28 15:00 | 52.03994 | 18.64678 | 34247 ft | 443 kts | 234° |
| 2026-04-28 15:01 | 51.99751 | 18.57412 | 34245 ft | 443 kts | 233° |
| 2026-04-28 15:01 | 51.95511 | 18.50177 | 34246 ft | 444 kts | 233° |
| 2026-04-28 15:02 | 51.91257 | 18.42946 | 34244 ft | 443 kts | 233° |
| 2026-04-28 15:02 | 51.87024 | 18.35763 | 34249 ft | 443 kts | 233° |
| 2026-04-28 15:03 | 51.82753 | 18.28537 | 34257 ft | 444 kts | 232° |
| 2026-04-28 15:03 | 51.78516 | 18.21391 | 34264 ft | 443 kts | 232° |
| 2026-04-28 15:04 | 51.74277 | 18.14262 | 34266 ft | 442 kts | 232° |
| 2026-04-28 15:04 | 51.70042 | 18.07161 | 34265 ft | 441 kts | 232° |
| 2026-04-28 15:05 | 51.65792 | 18.00054 | 34266 ft | 441 kts | 232° |
| 2026-04-28 15:05 | 51.61544 | 17.92970 | 34262 ft | 441 kts | 232° |
| 2026-04-28 15:06 | 51.57259 | 17.85921 | 34262 ft | 442 kts | 231° |
| 2026-04-28 15:06 | 51.52840 | 17.79076 | 34259 ft | 442 kts | 230° |
| 2026-04-28 15:07 | 51.48436 | 17.72294 | 34255 ft | 442 kts | 230° |
| 2026-04-28 15:07 | 51.44010 | 17.65474 | 34248 ft | 441 kts | 230° |
| 2026-04-28 15:08 | 51.39605 | 17.58692 | 34246 ft | 441 kts | 230° |
| 2026-04-28 15:08 | 51.35202 | 17.51927 | 34245 ft | 440 kts | 230° |
| 2026-04-28 15:09 | 51.30815 | 17.45205 | 34244 ft | 440 kts | 230° |
| 2026-04-28 15:09 | 51.26392 | 17.38446 | 34243 ft | 440 kts | 230° |
| 2026-04-28 15:10 | 51.21989 | 17.31736 | 34245 ft | 440 kts | 229° |
| 2026-04-28 15:10 | 51.17570 | 17.25024 | 34246 ft | 439 kts | 229° |
| 2026-04-28 15:11 | 51.13162 | 17.18347 | 34246 ft | 438 kts | 229° |
| 2026-04-28 15:11 | 51.08778 | 17.11723 | 34246 ft | 437 kts | 229° |
| 2026-04-28 15:12 | 51.04377 | 17.05092 | 34249 ft | 438 kts | 230° |
| 2026-04-28 15:12 | 50.99951 | 16.98439 | 34246 ft | 437 kts | 230° |
| 2026-04-28 15:13 | 50.95544 | 16.91834 | 34241 ft | 436 kts | 230° |
| 2026-04-28 15:13 | 50.91175 | 16.85304 | 34240 ft | 435 kts | 230° |
| 2026-04-28 15:14 | 50.86765 | 16.78728 | 34222 ft | 434 kts | 230° |
| 2026-04-28 15:14 | 50.82388 | 16.72222 | 34220 ft | 433 kts | 230° |
| 2026-04-28 15:15 | 50.77987 | 16.65695 | 34215 ft | 434 kts | 230° |
| 2026-04-28 15:15 | 50.73623 | 16.59240 | 34192 ft | 433 kts | 230° |
| 2026-04-28 15:16 | 50.69239 | 16.52773 | 34195 ft | 433 kts | 230° |
| 2026-04-28 15:16 | 50.64850 | 16.46317 | 34186 ft | 432 kts | 230° |
| 2026-04-28 15:17 | 50.60429 | 16.39967 | 34186 ft | 433 kts | 227° |
| 2026-04-28 15:17 | 50.55774 | 16.33911 | 34179 ft | 433 kts | 226° |
| 2026-04-28 15:18 | 50.51143 | 16.27893 | 34181 ft | 433 kts | 226° |
| 2026-04-28 15:18 | 50.46510 | 16.21891 | 34179 ft | 432 kts | 226° |
| 2026-04-28 15:19 | 50.41914 | 16.15950 | 34183 ft | 431 kts | 226° |
| 2026-04-28 15:19 | 50.37300 | 16.10002 | 34181 ft | 430 kts | 226° |
| 2026-04-28 15:20 | 50.32717 | 16.04111 | 34179 ft | 429 kts | 226° |